createdAt,value
2023-02-19T00:04:48.494Z,0
2023-02-19T00:09:48.469Z,0
2023-02-19T00:14:49.289Z,0
2023-02-19T00:19:49.042Z,0
2023-02-19T00:24:49.312Z,0
2023-02-19T00:29:48.961Z,0
2023-02-19T00:34:48.970Z,0
2023-02-19T00:39:49.329Z,0
2023-02-19T00:44:49.353Z,0
2023-02-19T00:49:49.240Z,0
2023-02-19T00:54:49.327Z,0
2023-02-19T00:59:49.358Z,0
2023-02-19T01:04:49.226Z,0
2023-02-19T01:09:49.208Z,0
2023-02-19T01:14:49.360Z,0
2023-02-19T01:19:49.248Z,0
2023-02-19T01:24:49.164Z,0
2023-02-19T01:29:49.209Z,0
2023-02-19T01:34:49.430Z,0
2023-02-19T01:39:49.447Z,0
2023-02-19T01:44:49.430Z,0
2023-02-19T01:49:49.419Z,0
2023-02-19T01:54:49.462Z,0
2023-02-19T01:59:49.526Z,0
2023-02-19T02:04:49.494Z,0
2023-02-19T02:09:49.536Z,0
2023-02-19T02:14:49.418Z,0
2023-02-19T02:19:49.682Z,0
2023-02-19T02:24:49.675Z,0
2023-02-19T02:29:49.663Z,0
2023-02-19T02:34:49.694Z,0
2023-02-19T02:39:49.644Z,0
2023-02-19T02:44:49.670Z,0
2023-02-19T02:49:49.637Z,0
2023-02-19T02:54:50.763Z,0
2023-02-19T02:59:50.710Z,0
2023-02-19T03:04:50.690Z,0
2023-02-19T03:09:50.725Z,0
2023-02-19T03:14:50.722Z,0
2023-02-19T03:19:50.704Z,0
2023-02-19T03:24:50.687Z,0
2023-02-19T03:29:50.725Z,0
2023-02-19T03:34:50.676Z,0
2023-02-19T03:39:50.703Z,0
2023-02-19T03:44:51.493Z,0
2023-02-19T03:49:51.751Z,0
2023-02-19T03:54:51.755Z,0
2023-02-19T03:59:51.740Z,0
2023-02-19T04:04:51.761Z,0
2023-02-19T04:09:51.718Z,0
2023-02-19T04:14:51.717Z,0
2023-02-19T04:19:51.737Z,0
2023-02-19T04:24:51.767Z,0
2023-02-19T04:29:51.749Z,0
2023-02-19T04:34:54.006Z,0
2023-02-19T04:39:51.743Z,0
2023-02-19T04:44:51.750Z,0
2023-02-19T04:49:51.716Z,0
2023-02-19T04:54:51.721Z,0
2023-02-19T04:59:51.740Z,0
2023-02-19T05:04:51.753Z,0
2023-02-19T05:09:51.755Z,0
2023-02-19T05:14:51.709Z,0
2023-02-19T05:19:51.737Z,0
2023-02-19T05:24:51.941Z,0
2023-02-19T05:29:51.959Z,0
2023-02-19T05:34:51.936Z,0
2023-02-19T05:39:51.941Z,0
2023-02-19T05:44:51.967Z,0
2023-02-19T05:49:51.953Z,0
2023-02-19T05:54:51.960Z,0
2023-02-19T05:59:51.971Z,0
2023-02-19T06:04:51.935Z,0
2023-02-19T06:09:51.933Z,0
2023-02-19T06:14:51.965Z,0
2023-02-19T06:19:51.922Z,0
2023-02-19T06:24:51.871Z,0
2023-02-19T06:29:51.901Z,0
2023-02-19T06:34:51.940Z,0
2023-02-19T06:39:51.931Z,0
2023-02-19T06:44:51.927Z,0
2023-02-19T06:49:51.972Z,0
2023-02-19T06:54:51.943Z,0
2023-02-19T06:59:52.147Z,3
2023-02-19T07:04:52.191Z,4
2023-02-19T07:09:52.174Z,15
2023-02-19T07:14:52.165Z,18
2023-02-19T07:19:52.677Z,14
2023-02-19T07:24:52.692Z,14
2023-02-19T07:29:52.688Z,23
2023-02-19T07:34:52.736Z,34
2023-02-19T07:39:52.718Z,34
2023-02-19T07:44:52.771Z,33
2023-02-19T07:49:52.664Z,22
2023-02-19T07:54:52.692Z,27
2023-02-19T07:59:52.679Z,42
2023-02-19T08:04:52.924Z,33
2023-02-19T08:09:52.965Z,30
2023-02-19T08:14:52.962Z,35
2023-02-19T08:19:52.954Z,103
2023-02-19T08:24:52.905Z,108
2023-02-19T08:29:52.936Z,65
2023-02-19T08:34:52.928Z,47
2023-02-19T08:39:52.901Z,61
2023-02-19T08:44:52.920Z,106
2023-02-19T08:49:52.940Z,134
2023-02-19T08:54:53.596Z,136
2023-02-19T08:59:53.439Z,180
2023-02-19T09:04:53.457Z,233
2023-02-19T09:09:53.466Z,181
2023-02-19T09:14:53.470Z,94
2023-02-19T09:19:53.680Z,164
2023-02-19T09:24:53.685Z,100
2023-02-19T09:29:53.678Z,74
2023-02-19T09:34:53.672Z,167
2023-02-19T09:39:53.694Z,323
2023-02-19T09:44:53.670Z,494
2023-02-19T09:49:53.649Z,239
2023-02-19T09:54:55.342Z,219
2023-02-19T09:59:53.658Z,399
2023-02-19T10:04:53.981Z,391
2023-02-19T10:09:53.912Z,460
2023-02-19T10:14:53.908Z,587
2023-02-19T10:19:53.924Z,150
2023-02-19T10:24:53.927Z,125
2023-02-19T10:29:53.902Z,475
2023-02-19T10:34:53.917Z,538
2023-02-19T10:39:53.919Z,381
2023-02-19T10:44:53.919Z,171
2023-02-19T10:49:53.874Z,199
2023-02-19T10:54:53.939Z,494
2023-02-19T10:59:54.147Z,638
2023-02-19T11:04:54.166Z,621
2023-02-19T11:09:54.124Z,498
2023-02-19T11:14:54.148Z,214
2023-02-19T11:19:54.144Z,186
2023-02-19T11:24:57.368Z,651
2023-02-19T11:29:54.121Z,343
2023-02-19T11:34:54.135Z,215
2023-02-19T11:39:54.119Z,284
2023-02-19T11:44:54.135Z,693
2023-02-19T11:49:54.148Z,451
2023-02-19T11:54:54.139Z,206
2023-02-19T11:59:54.142Z,293
2023-02-19T12:04:54.171Z,364
2023-02-19T12:09:54.132Z,196
2023-02-19T12:14:54.126Z,215
2023-02-19T12:19:54.114Z,207
2023-02-19T12:24:54.473Z,403
2023-02-19T12:29:54.372Z,677
2023-02-19T12:34:54.378Z,358
2023-02-19T12:39:54.338Z,224
2023-02-19T12:44:54.353Z,139
2023-02-19T12:49:54.363Z,176
2023-02-19T12:54:55.773Z,219
2023-02-19T12:59:54.363Z,239
2023-02-19T13:04:54.355Z,248
2023-02-19T13:09:54.349Z,190
2023-02-19T13:14:54.343Z,205
2023-02-19T13:19:54.354Z,216
2023-02-19T13:24:54.446Z,221
2023-02-19T13:29:54.375Z,182
2023-02-19T13:34:54.359Z,100
2023-02-19T13:39:54.342Z,115
2023-02-19T13:44:57.081Z,221
2023-02-19T13:49:54.323Z,411
2023-02-19T13:54:54.360Z,326
2023-02-19T13:59:54.313Z,177
2023-02-19T14:04:54.329Z,117
2023-02-19T14:09:54.312Z,98
2023-02-19T14:14:54.586Z,110
2023-02-19T14:19:54.618Z,135
2023-02-19T14:24:54.819Z,139
2023-02-19T14:29:55.046Z,137
2023-02-19T14:34:55.080Z,100
2023-02-19T14:39:55.056Z,70
2023-02-19T14:44:56.377Z,54
2023-02-19T14:49:56.713Z,52
2023-02-19T14:54:56.752Z,72
2023-02-19T14:59:56.979Z,78
2023-02-19T15:04:57.023Z,107
2023-02-19T15:09:56.976Z,135
2023-02-19T15:14:56.930Z,135
2023-02-19T15:19:56.963Z,115
2023-02-19T15:24:56.931Z,63
2023-02-19T15:29:56.942Z,59
2023-02-19T15:34:57.004Z,48
2023-02-19T15:39:56.976Z,36
2023-02-19T15:44:56.961Z,36
2023-02-19T15:49:56.952Z,34
2023-02-19T15:54:57.551Z,19
2023-02-19T15:59:57.206Z,12
2023-02-19T16:04:57.454Z,14
2023-02-19T16:09:58.266Z,18
2023-02-19T16:14:58.263Z,13
2023-02-19T16:19:58.235Z,8
2023-02-19T16:24:58.298Z,2
2023-02-19T16:29:58.854Z,2
2023-02-19T16:34:58.791Z,0
2023-02-19T16:39:58.856Z,0
2023-02-19T16:44:58.808Z,0
2023-02-19T16:49:59.013Z,0
2023-02-19T16:54:58.820Z,0
2023-02-19T16:59:58.836Z,0
2023-02-19T17:04:58.813Z,0
2023-02-19T17:09:58.809Z,0
2023-02-19T17:14:58.826Z,0
2023-02-19T17:19:58.788Z,0
2023-02-19T17:24:58.769Z,0
2023-02-19T17:29:58.778Z,0
2023-02-19T17:34:59.304Z,0
2023-02-19T17:39:59.294Z,0
2023-02-19T17:44:59.892Z,0
2023-02-19T17:49:59.850Z,0
2023-02-19T17:54:59.828Z,0
2023-02-19T17:59:59.823Z,0
2023-02-19T18:04:59.845Z,0
2023-02-19T18:10:00.165Z,0
2023-02-19T18:15:00.103Z,0
2023-02-19T18:20:00.058Z,0
2023-02-19T18:25:00.027Z,0
2023-02-19T18:30:00.273Z,0
2023-02-19T18:35:00.069Z,0
2023-02-19T18:40:00.114Z,0
2023-02-19T18:45:00.115Z,0
2023-02-19T18:50:00.123Z,0
2023-02-19T18:55:00.062Z,0
2023-02-19T19:00:00.102Z,0
2023-02-19T19:05:00.073Z,0
2023-02-19T19:10:00.100Z,0
2023-02-19T19:15:00.045Z,0
2023-02-19T19:20:00.329Z,0
2023-02-19T19:25:00.316Z,0
2023-02-19T19:30:00.407Z,0
2023-02-19T19:35:00.290Z,0
2023-02-19T19:40:00.354Z,0
2023-02-19T19:45:00.347Z,0
2023-02-19T19:50:00.554Z,0
2023-02-19T19:55:01.618Z,0
2023-02-19T20:00:01.455Z,0
2023-02-19T20:05:01.442Z,0
2023-02-19T20:10:01.456Z,0
2023-02-19T20:15:02.029Z,0
2023-02-19T20:20:01.950Z,0
2023-02-19T20:25:07.000Z,0
2023-02-19T20:30:07.709Z,0
2023-02-19T20:35:07.000Z,0
2023-02-19T20:40:07.015Z,0
2023-02-19T20:45:07.022Z,0
2023-02-19T20:50:07.017Z,0
2023-02-19T20:55:07.009Z,0
2023-02-19T21:00:07.010Z,0
2023-02-19T21:05:07.003Z,0
2023-02-19T21:10:06.999Z,0
2023-02-19T21:15:06.972Z,0
2023-02-19T21:20:06.995Z,0
2023-02-19T21:25:06.975Z,0
2023-02-19T21:30:07.060Z,0
2023-02-19T21:35:07.249Z,0
2023-02-19T21:40:07.225Z,0
2023-02-19T21:45:07.256Z,0
2023-02-19T21:50:07.212Z,0
2023-02-19T21:55:07.283Z,0
2023-02-19T22:00:07.207Z,0
2023-02-19T22:05:07.196Z,0
2023-02-19T22:10:07.214Z,0
2023-02-19T22:15:07.223Z,0
2023-02-19T22:20:07.220Z,0
2023-02-19T22:25:07.198Z,0
2023-02-19T22:30:07.229Z,0
2023-02-19T22:35:07.231Z,0
2023-02-19T22:40:07.217Z,0
2023-02-19T22:45:07.207Z,0
2023-02-19T22:50:07.185Z,0
2023-02-19T22:55:07.173Z,0
2023-02-19T23:00:07.199Z,0
2023-02-19T23:05:07.182Z,0
2023-02-19T23:10:07.210Z,0
2023-02-19T23:15:07.168Z,0
2023-02-19T23:20:07.191Z,0
2023-02-19T23:25:07.162Z,0
2023-02-19T23:30:07.262Z,0
2023-02-19T23:35:07.156Z,0
2023-02-19T23:40:07.134Z,0
2023-02-19T23:45:07.153Z,0
2023-02-19T23:50:07.188Z,0
2023-02-19T23:55:07.138Z,0
